Time;durP1;ratioP1;P1;durP2;ratioP2;P2;SDS_P1;SDS_P2;PMS_P1;PMS_P2;Temp;Humidity;BMP_temperature;BMP_pressure;BME280_temperature;BME280_humidity;BME280_pressure;Samples;Min_cycle;Max_cycle;Signal;HPM_P1;HPM_P2
2022/03/04 00:01:14;;;;;;;106.53;48.15;;;;;;;;;;5105035;28;20026;-66
2022/03/04 00:03:41;;;;;;;107.22;49.88;;;;;;;;;;5099940;28;20024;-66
2022/03/04 00:06:07;;;;;;;120.88;52.63;;;;;;;;;;5103567;28;20426;-67
2022/03/04 00:08:33;;;;;;;112.25;52.55;;;;;;;;;;5104516;28;20039;-67
2022/03/04 00:11:00;;;;;;;114.20;53.83;;;;;;;;;;5102245;28;20483;-66
2022/03/04 00:13:26;;;;;;;121.85;57.35;;;;;;;;;;5103426;28;20026;-67
2022/03/04 00:15:52;;;;;;;114.68;54.28;;;;;;;;;;5085695;28;20473;-67
2022/03/04 00:18:18;;;;;;;115.25;55.25;;;;;;;;;;5083967;28;20380;-67
2022/03/04 00:20:44;;;;;;;98.35;45.10;;;;;;;;;;5103298;28;20104;-67
2022/03/04 00:23:10;;;;;;;96.90;44.63;;;;;;;;;;5103321;28;20032;-67
2022/03/04 00:25:37;;;;;;;92.60;42.85;;;;;;;;;;5102144;28;20022;-67
2022/03/04 00:28:04;;;;;;;97.70;46.72;;;;;;;;;;5103967;28;20019;-67
2022/03/04 00:30:30;;;;;;;96.82;45.50;;;;;;;;;;5103403;28;20016;-67
2022/03/04 00:32:56;;;;;;;106.60;48.83;;;;;;;;;;5102066;28;20027;-67
2022/03/04 00:35:22;;;;;;;106.47;49.78;;;;;;;;;;5104023;28;20056;-65
2022/03/04 00:37:49;;;;;;;106.70;49.47;;;;;;;;;;5103155;28;20027;-65
2022/03/04 00:40:15;;;;;;;107.05;48.42;;;;;;;;;;5102132;28;20039;-67
2022/03/04 00:42:41;;;;;;;104.75;47.95;;;;;;;;;;5080908;28;20129;-65
2022/03/04 00:48:11;;;;;;;103.15;47.08;;;;;;;;;;5114444;28;20064;-67
2022/03/04 00:50:37;;;;;;;98.07;47.63;;;;;;;;;;5114338;28;20111;-69
2022/03/04 00:53:04;;;;;;;98.28;47.55;;;;;;;;;;5096086;28;20471;-67
2022/03/04 00:55:30;;;;;;;99.93;45.35;;;;;;;;;;5095922;28;20217;-69
2022/03/04 00:57:56;;;;;;;89.85;43.78;;;;;;;;;;5095955;28;20375;-67
2022/03/04 01:00:22;;;;;;;92.13;43.78;;;;;;;;;;5114164;28;20100;-71
2022/03/04 01:02:49;;;;;;;95.10;44.80;;;;;;;;;;5114097;28;20042;-69
2022/03/04 01:05:15;;;;;;;90.80;44.88;;;;;;;;;;5114323;28;20028;-68
2022/03/04 01:07:41;;;;;;;94.13;45.20;;;;;;;;;;5095703;28;20072;-70
2022/03/04 01:10:07;;;;;;;98.03;45.50;;;;;;;;;;5095634;28;20228;-68
2022/03/04 01:12:34;;;;;;;92.82;45.28;;;;;;;;;;5113962;28;20035;-68
2022/03/04 01:15:00;;;;;;;91.60;44.23;;;;;;;;;;5091734;28;20508;-68
2022/03/04 01:17:26;;;;;;;101.18;46.78;;;;;;;;;;5092120;28;20530;-69
2022/03/04 01:19:52;;;;;;;95.28;44.35;;;;;;;;;;5093492;28;20107;-69
2022/03/04 01:22:19;;;;;;;88.75;44.28;;;;;;;;;;5093308;28;20032;-68
2022/03/04 01:24:46;;;;;;;92.72;43.72;;;;;;;;;;5093369;28;20040;-66
2022/03/04 01:27:13;;;;;;;95.22;42.13;;;;;;;;;;5093367;28;20349;-67
2022/03/04 01:29:39;;;;;;;87.10;43.63;;;;;;;;;;5092002;28;20027;-69
2022/03/04 01:32:05;;;;;;;92.53;43.63;;;;;;;;;;5091985;28;20028;-68
2022/03/04 01:34:33;;;;;;;97.03;42.42;;;;;;;;;;5093318;28;20024;-68
2022/03/04 01:36:59;;;;;;;83.43;42.72;;;;;;;;;;5093275;28;20044;-70
2022/03/04 01:39:25;;;;;;;88.88;41.13;;;;;;;;;;5092894;28;20392;-68
2022/03/04 01:41:52;;;;;;;84.90;40.20;;;;;;;;;;5091814;28;20028;-68
2022/03/04 01:44:18;;;;;;;90.90;42.33;;;;;;;;;;5093214;28;20032;-70
2022/03/04 01:46:45;;;;;;;87.20;41.40;;;;;;;;;;5093151;28;20032;-69
2022/03/04 01:49:11;;;;;;;94.93;43.80;;;;;;;;;;5093196;28;20036;-68
2022/03/04 01:51:37;;;;;;;96.95;45.67;;;;;;;;;;5091839;28;20077;-70
2022/03/04 01:54:04;;;;;;;102.47;48.17;;;;;;;;;;5093059;28;20107;-68
2022/03/04 01:56:30;;;;;;;102.93;49.90;;;;;;;;;;5093074;28;20028;-67
2022/03/04 01:58:57;;;;;;;100.80;46.67;;;;;;;;;;5091679;28;20069;-70
2022/03/04 02:01:23;;;;;;;106.85;47.13;;;;;;;;;;5092996;28;20028;-70
2022/03/04 02:03:49;;;;;;;104.47;49.75;;;;;;;;;;5091586;28;20456;-68
2022/03/04 02:06:16;;;;;;;95.95;45.33;;;;;;;;;;5092910;28;20028;-68
2022/03/04 02:08:42;;;;;;;87.88;42.38;;;;;;;;;;5091587;28;20472;-68
2022/03/04 02:11:08;;;;;;;82.28;39.97;;;;;;;;;;5092913;28;20032;-68
2022/03/04 02:13:37;;;;;;;82.20;40.15;;;;;;;;;;5093647;28;20028;-68
2022/03/04 02:16:07;;;;;;;81.57;41.60;;;;;;;;;;5094595;28;20476;-69
2022/03/04 02:18:33;;;;;;;88.05;43.97;;;;;;;;;;5113204;28;20032;-67
2022/03/04 02:21:02;;;;;;;94.03;42.88;;;;;;;;;;5113195;28;20047;-69
2022/03/04 02:23:28;;;;;;;89.22;42.65;;;;;;;;;;5113135;28;20024;-66
2022/03/04 02:25:54;;;;;;;86.03;39.67;;;;;;;;;;5112861;28;20441;-66
2022/03/04 02:28:21;;;;;;;80.85;39.42;;;;;;;;;;5113076;28;20028;-66
2022/03/04 02:30:48;;;;;;;82.60;39.15;;;;;;;;;;5094846;28;20387;-67
2022/03/04 02:33:14;;;;;;;88.25;40.92;;;;;;;;;;5112781;28;20034;-67
2022/03/04 02:35:41;;;;;;;83.20;39.53;;;;;;;;;;5115350;28;20023;-64
2022/03/04 02:38:07;;;;;;;78.47;38.53;;;;;;;;;;5116969;28;20019;-64
2022/03/04 02:40:34;;;;;;;80.47;37.67;;;;;;;;;;5116902;28;20030;-64
2022/03/04 02:43:00;;;;;;;80.32;39.22;;;;;;;;;;5116829;28;20024;-66
2022/03/04 02:45:26;;;;;;;91.15;41.88;;;;;;;;;;5116874;28;20015;-65
2022/03/04 02:47:53;;;;;;;89.07;41.72;;;;;;;;;;5117014;28;20080;-64
2022/03/04 02:50:19;;;;;;;94.18;42.00;;;;;;;;;;5116984;28;20023;-66
2022/03/04 02:52:45;;;;;;;92.25;42.08;;;;;;;;;;5097555;28;20207;-65
2022/03/04 02:55:16;;;;;;;90.88;38.30;;;;;;;;;;5116622;28;20073;-64
2022/03/04 02:57:43;;;;;;;86.20;38.17;;;;;;;;;;5097997;28;20110;-65
2022/03/04 03:00:10;;;;;;;83.95;37.92;;;;;;;;;;5116460;28;20024;-64
2022/03/04 03:02:37;;;;;;;80.30;35.20;;;;;;;;;;5116423;28;20031;-65
2022/03/04 03:05:04;;;;;;;79.30;36.17;;;;;;;;;;5116231;28;20535;-66
2022/03/04 03:07:30;;;;;;;70.78;33.10;;;;;;;;;;5098343;28;20447;-64
2022/03/04 03:09:56;;;;;;;70.07;34.47;;;;;;;;;;5116319;28;20024;-65
2022/03/04 03:12:23;;;;;;;83.40;35.90;;;;;;;;;;5116544;28;20069;-65
2022/03/04 03:14:49;;;;;;;60.25;29.95;;;;;;;;;;5097652;28;20056;-63
2022/03/04 03:17:15;;;;;;;68.22;31.75;;;;;;;;;;5116188;28;20028;-67
2022/03/04 03:19:41;;;;;;;67.07;32.22;;;;;;;;;;5097877;28;20358;-65
2022/03/04 03:22:08;;;;;;;68.13;31.73;;;;;;;;;;5116061;28;20126;-68
2022/03/04 03:24:35;;;;;;;76.03;34.58;;;;;;;;;;5116112;28;20035;-67
2022/03/04 03:27:01;;;;;;;76.13;36.00;;;;;;;;;;5115691;28;20372;-66
2022/03/04 03:29:27;;;;;;;66.28;32.67;;;;;;;;;;5115950;28;20023;-67
2022/03/04 03:31:53;;;;;;;73.93;34.15;;;;;;;;;;5115959;28;20028;-66
2022/03/04 03:34:20;;;;;;;66.82;31.20;;;;;;;;;;5116149;28;20028;-67
2022/03/04 03:36:46;;;;;;;74.53;33.67;;;;;;;;;;5097474;28;20475;-67
2022/03/04 03:39:12;;;;;;;61.38;32.20;;;;;;;;;;5116025;28;20055;-66
2022/03/04 03:41:38;;;;;;;64.93;31.37;;;;;;;;;;5115677;28;20038;-66
2022/03/04 03:44:04;;;;;;;69.43;31.85;;;;;;;;;;5115712;28;20032;-66
2022/03/04 03:46:31;;;;;;;64.57;32.97;;;;;;;;;;5114597;28;20491;-66
2022/03/04 03:48:57;;;;;;;64.75;31.15;;;;;;;;;;5097232;28;20047;-67
2022/03/04 03:51:23;;;;;;;61.92;30.95;;;;;;;;;;5097263;28;20110;-66
2022/03/04 03:53:49;;;;;;;69.60;32.50;;;;;;;;;;5115714;28;20035;-66
2022/03/04 03:56:15;;;;;;;63.75;30.65;;;;;;;;;;5097150;28;20087;-67
2022/03/04 03:58:42;;;;;;;69.32;31.90;;;;;;;;;;5115069;28;20472;-69
2022/03/04 04:01:08;;;;;;;65.90;32.90;;;;;;;;;;5115336;28;20036;-69
2022/03/04 04:03:35;;;;;;;75.88;33.78;;;;;;;;;;5114917;28;20161;-68
2022/03/04 04:06:01;;;;;;;72.68;33.13;;;;;;;;;;5115310;28;20054;-68
2022/03/04 04:08:27;;;;;;;67.72;32.70;;;;;;;;;;5115480;28;20024;-67
2022/03/04 04:10:53;;;;;;;72.23;31.37;;;;;;;;;;5096777;28;20157;-69
2022/03/04 04:13:20;;;;;;;71.07;32.50;;;;;;;;;;5096800;28;20067;-69
2022/03/04 04:15:46;;;;;;;74.95;33.55;;;;;;;;;;5114609;28;20052;-69
2022/03/04 04:18:12;;;;;;;74.68;34.58;;;;;;;;;;5115019;28;20034;-68
2022/03/04 04:20:38;;;;;;;65.28;32.28;;;;;;;;;;5114660;28;20032;-68
2022/03/04 04:23:04;;;;;;;70.72;32.60;;;;;;;;;;5114621;28;20387;-69
2022/03/04 04:25:30;;;;;;;72.53;32.35;;;;;;;;;;5115198;28;20114;-68
2022/03/04 04:27:57;;;;;;;68.13;31.83;;;;;;;;;;5114787;28;20055;-69
2022/03/04 04:30:23;;;;;;;68.88;33.40;;;;;;;;;;5114747;28;20027;-69
2022/03/04 04:32:49;;;;;;;70.95;32.85;;;;;;;;;;5114674;28;20088;-68
2022/03/04 04:35:15;;;;;;;70.20;32.60;;;;;;;;;;5114978;28;20032;-68
2022/03/04 04:37:41;;;;;;;69.68;32.88;;;;;;;;;;5114627;28;20020;-69
2022/03/04 04:40:08;;;;;;;70.28;29.85;;;;;;;;;;5096229;28;20023;-68
2022/03/04 04:42:34;;;;;;;65.95;31.25;;;;;;;;;;5096178;28;20031;-69
2022/03/04 04:45:00;;;;;;;73.28;31.52;;;;;;;;;;5114524;28;20106;-69
2022/03/04 04:47:27;;;;;;;65.82;28.83;;;;;;;;;;5114403;28;20030;-68
2022/03/04 04:49:53;;;;;;;75.82;31.48;;;;;;;;;;5114328;28;20034;-68
2022/03/04 04:52:19;;;;;;;65.03;30.50;;;;;;;;;;5096108;28;20437;-69
2022/03/04 04:54:45;;;;;;;70.25;29.88;;;;;;;;;;5114316;28;20034;-69
2022/03/04 04:57:11;;;;;;;62.65;29.25;;;;;;;;;;5096066;28;20027;-69
2022/03/04 04:59:37;;;;;;;63.78;30.08;;;;;;;;;;5095685;28;20080;-70
2022/03/04 05:02:04;;;;;;;59.50;28.85;;;;;;;;;;5095779;28;20032;-70
2022/03/04 05:04:30;;;;;;;59.92;27.23;;;;;;;;;;5114132;28;20023;-70
2022/03/04 05:06:56;;;;;;;98.55;34.15;;;;;;;;;;5114331;28;20161;-69
2022/03/04 05:09:22;;;;;;;81.40;31.35;;;;;;;;;;5114019;28;20023;-69
2022/03/04 05:11:49;;;;;;;60.47;29.17;;;;;;;;;;5113635;28;20484;-70
2022/03/04 05:14:15;;;;;;;57.22;29.13;;;;;;;;;;5095183;28;20134;-70
2022/03/04 05:16:41;;;;;;;60.53;29.05;;;;;;;;;;5113935;28;20028;-69
2022/03/04 05:19:07;;;;;;;57.78;28.38;;;;;;;;;;5095536;28;20058;-70
2022/03/04 05:21:34;;;;;;;61.30;30.10;;;;;;;;;;5095599;28;20034;-70
2022/03/04 05:24:01;;;;;;;57.10;28.90;;;;;;;;;;5113671;28;20028;-69
2022/03/04 05:26:31;;;;;;;56.73;28.87;;;;;;;;;;5113859;28;20089;-69
2022/03/04 05:28:57;;;;;;;61.03;28.30;;;;;;;;;;5113729;28;20028;-69
2022/03/04 05:31:24;;;;;;;67.87;30.97;;;;;;;;;;5113706;28;20106;-69
2022/03/04 05:33:51;;;;;;;80.63;32.67;;;;;;;;;;5095318;28;20031;-69
2022/03/04 05:36:17;;;;;;;75.77;32.50;;;;;;;;;;5113693;28;20044;-68
2022/03/04 05:38:43;;;;;;;77.13;36.37;;;;;;;;;;5113593;28;20060;-68
2022/03/04 05:41:09;;;;;;;99.00;36.67;;;;;;;;;;5113569;28;20080;-70
2022/03/04 05:43:37;;;;;;;63.70;31.27;;;;;;;;;;5113423;28;20028;-68
2022/03/04 05:46:04;;;;;;;55.40;29.30;;;;;;;;;;5095259;28;20035;-69
2022/03/04 05:48:30;;;;;;;58.97;30.92;;;;;;;;;;5094943;28;20024;-71
2022/03/04 05:50:56;;;;;;;61.92;30.70;;;;;;;;;;5095176;28;20165;-68
2022/03/04 05:53:22;;;;;;;59.77;29.27;;;;;;;;;;5095203;28;20034;-70
2022/03/04 05:55:49;;;;;;;65.43;29.52;;;;;;;;;;5095113;28;20031;-69
2022/03/04 05:58:15;;;;;;;66.53;32.30;;;;;;;;;;5113401;28;20020;-69
2022/03/04 06:00:41;;;;;;;88.43;42.13;;;;;;;;;;5113573;28;20140;-70
2022/03/04 06:03:07;;;;;;;72.50;37.23;;;;;;;;;;5113169;28;20070;-70
2022/03/04 06:05:34;;;;;;;70.20;35.50;;;;;;;;;;5113236;28;20119;-69
2022/03/04 06:08:00;;;;;;;66.38;32.72;;;;;;;;;;5113129;28;20031;-68
2022/03/04 06:10:27;;;;;;;66.97;31.87;;;;;;;;;;5114618;28;20387;-69
2022/03/04 06:12:53;;;;;;;63.27;31.60;;;;;;;;;;5099068;28;20027;-70
2022/03/04 06:15:19;;;;;;;63.73;31.50;;;;;;;;;;5117292;28;20035;-70
2022/03/04 06:17:50;;;;;;;63.00;31.70;;;;;;;;;;5098983;28;20123;-70
2022/03/04 06:20:19;;;;;;;68.27;31.07;;;;;;;;;;5098912;28;20522;-64
2022/03/04 06:22:45;;;;;;;55.65;29.60;;;;;;;;;;5117127;28;20039;-65
2022/03/04 06:25:12;;;;;;;63.67;32.13;;;;;;;;;;5117201;28;20563;-63
2022/03/04 06:27:39;;;;;;;69.88;32.22;;;;;;;;;;5117044;28;20028;-65
2022/03/04 06:30:05;;;;;;;70.53;33.03;;;;;;;;;;5115099;28;20032;-65
2022/03/04 06:32:31;;;;;;;64.45;31.38;;;;;;;;;;5093587;28;20050;-67
2022/03/04 06:34:58;;;;;;;60.10;31.60;;;;;;;;;;5096100;28;20024;-65
2022/03/04 06:37:24;;;;;;;75.30;34.78;;;;;;;;;;5095218;28;20028;-65
2022/03/04 06:39:50;;;;;;;73.00;34.13;;;;;;;;;;5095074;28;20476;-67
2022/03/04 06:42:16;;;;;;;70.85;34.33;;;;;;;;;;5095472;28;20031;-67
2022/03/04 06:44:43;;;;;;;76.63;33.90;;;;;;;;;;5094628;28;20036;-68
2022/03/04 06:47:09;;;;;;;73.93;31.80;;;;;;;;;;5094653;28;20024;-66
2022/03/04 06:49:35;;;;;;;67.95;31.33;;;;;;;;;;5095864;28;20119;-66
2022/03/04 06:52:02;;;;;;;54.95;28.70;;;;;;;;;;5095828;28;20020;-66
2022/03/04 06:54:28;;;;;;;57.08;27.63;;;;;;;;;;5096043;28;20036;-64
2022/03/04 06:56:54;;;;;;;53.90;28.58;;;;;;;;;;5095751;28;20461;-64
2022/03/04 06:59:20;;;;;;;71.82;31.98;;;;;;;;;;5095876;28;20028;-65
2022/03/04 07:01:46;;;;;;;71.93;33.72;;;;;;;;;;5095887;28;20453;-65
2022/03/04 07:04:13;;;;;;;68.65;31.73;;;;;;;;;;5095536;28;20050;-64
2022/03/04 07:06:39;;;;;;;70.07;34.78;;;;;;;;;;5095592;28;20370;-64
2022/03/04 07:09:05;;;;;;;63.08;31.10;;;;;;;;;;5095589;28;20111;-64
2022/03/04 07:11:31;;;;;;;67.05;29.83;;;;;;;;;;5095499;28;20047;-64
2022/03/04 07:13:57;;;;;;;82.47;41.13;;;;;;;;;;5095366;28;20024;-65
2022/03/04 07:16:23;;;;;;;61.10;32.15;;;;;;;;;;5094094;28;20063;-65
2022/03/04 07:18:49;;;;;;;68.50;32.97;;;;;;;;;;5094073;28;20023;-64
2022/03/04 07:21:16;;;;;;;71.15;35.53;;;;;;;;;;5094743;28;20040;-65
2022/03/04 07:23:42;;;;;;;59.85;30.38;;;;;;;;;;5093299;28;20028;-66
2022/03/04 07:26:09;;;;;;;61.42;30.38;;;;;;;;;;5094918;28;20059;-65
2022/03/04 07:28:36;;;;;;;75.30;35.53;;;;;;;;;;5093962;28;20097;-65
2022/03/04 07:31:02;;;;;;;60.38;30.42;;;;;;;;;;5095985;28;20028;-67
2022/03/04 07:33:28;;;;;;;52.33;27.02;;;;;;;;;;5077030;28;20047;-67
2022/03/04 07:35:55;;;;;;;61.03;29.10;;;;;;;;;;5093220;28;20097;-65
2022/03/04 07:38:21;;;;;;;55.70;29.17;;;;;;;;;;5096432;28;20032;-64
2022/03/04 07:40:47;;;;;;;57.70;28.75;;;;;;;;;;5115194;28;20023;-66
2022/03/04 07:43:13;;;;;;;59.05;27.92;;;;;;;;;;5114956;28;20114;-66
2022/03/04 07:45:40;;;;;;;55.45;28.45;;;;;;;;;;5096936;28;20100;-67
2022/03/04 07:48:06;;;;;;;59.58;30.13;;;;;;;;;;5115254;28;20110;-65
2022/03/04 07:50:32;;;;;;;70.93;31.98;;;;;;;;;;5115113;28;20063;-65
2022/03/04 07:52:58;;;;;;;62.50;31.63;;;;;;;;;;5115357;28;20053;-65
2022/03/04 07:55:26;;;;;;;85.07;40.38;;;;;;;;;;5114960;28;20028;-65
2022/03/04 07:57:54;;;;;;;57.58;30.13;;;;;;;;;;5115169;28;20110;-65
2022/03/04 08:00:24;;;;;;;62.53;30.90;;;;;;;;;;5115204;28;20119;-65
2022/03/04 08:02:51;;;;;;;55.33;28.75;;;;;;;;;;5096893;28;20027;-65
2022/03/04 08:05:18;;;;;;;59.65;30.50;;;;;;;;;;5115182;28;20194;-65
2022/03/04 08:07:44;;;;;;;54.90;28.83;;;;;;;;;;5114974;28;20047;-66
2022/03/04 08:10:10;;;;;;;54.97;30.55;;;;;;;;;;5115057;28;20110;-65
2022/03/04 08:12:37;;;;;;;59.42;28.83;;;;;;;;;;5114779;28;20097;-65
2022/03/04 08:15:04;;;;;;;58.65;29.88;;;;;;;;;;5096309;28;20426;-65
2022/03/04 08:17:30;;;;;;;59.72;29.98;;;;;;;;;;5096266;28;20035;-65
2022/03/04 08:19:56;;;;;;;52.47;28.50;;;;;;;;;;5114609;28;20055;-65
2022/03/04 08:22:23;;;;;;;58.65;29.50;;;;;;;;;;5114364;28;20080;-66
2022/03/04 08:24:49;;;;;;;53.08;29.70;;;;;;;;;;5115061;28;20032;-66
2022/03/04 08:27:15;;;;;;;61.40;28.35;;;;;;;;;;5114630;28;20110;-64
2022/03/04 08:29:42;;;;;;;52.40;27.88;;;;;;;;;;5096413;28;20430;-64
2022/03/04 08:32:08;;;;;;;50.03;26.88;;;;;;;;;;5095865;28;20027;-66
2022/03/04 08:34:35;;;;;;;57.88;31.25;;;;;;;;;;5114195;28;20027;-66
2022/03/04 08:37:02;;;;;;;53.15;28.92;;;;;;;;;;5095934;28;20031;-68
2022/03/04 08:39:28;;;;;;;52.35;27.88;;;;;;;;;;5114139;28;20074;-68
2022/03/04 08:41:54;;;;;;;49.15;26.80;;;;;;;;;;5095900;28;20020;-65
2022/03/04 08:44:21;;;;;;;53.70;28.08;;;;;;;;;;5096058;28;20032;-65
2022/03/04 08:46:47;;;;;;;57.70;30.25;;;;;;;;;;5114245;28;20484;-64
2022/03/04 08:49:14;;;;;;;48.88;27.05;;;;;;;;;;5095857;28;20023;-65
2022/03/04 08:51:40;;;;;;;52.10;27.02;;;;;;;;;;5113991;28;20031;-65
2022/03/04 08:54:06;;;;;;;53.47;26.95;;;;;;;;;;5114112;28;20048;-67
2022/03/04 08:56:33;;;;;;;55.75;28.70;;;;;;;;;;5095480;28;20047;-65
2022/03/04 08:59:00;;;;;;;54.88;29.73;;;;;;;;;;5114108;28;20111;-65
2022/03/04 09:01:26;;;;;;;49.10;27.95;;;;;;;;;;5095510;28;20023;-66
2022/03/04 09:03:52;;;;;;;59.33;28.40;;;;;;;;;;5113883;28;20114;-68
2022/03/04 09:06:18;;;;;;;44.28;24.98;;;;;;;;;;5108962;28;20039;-69
2022/03/04 09:08:45;;;;;;;48.30;25.35;;;;;;;;;;5075086;28;20024;-71
2022/03/04 09:11:11;;;;;;;48.80;24.80;;;;;;;;;;5093403;28;20060;-67
2022/03/04 09:13:37;;;;;;;49.83;25.58;;;;;;;;;;5091183;28;20035;-67
2022/03/04 09:16:04;;;;;;;51.53;26.80;;;;;;;;;;5091666;28;20040;-68
2022/03/04 09:18:30;;;;;;;47.85;25.40;;;;;;;;;;5092262;28;20020;-66
2022/03/04 09:20:57;;;;;;;43.47;25.27;;;;;;;;;;5075557;28;20052;-66
2022/03/04 09:23:23;;;;;;;45.67;27.17;;;;;;;;;;5091006;28;20057;-65
2022/03/04 09:25:50;;;;;;;48.50;27.73;;;;;;;;;;5091236;28;20743;-65
2022/03/04 09:28:17;;;;;;;48.25;26.00;;;;;;;;;;5093077;28;20020;-65
2022/03/04 09:30:43;;;;;;;48.28;25.10;;;;;;;;;;5092983;28;20027;-67
2022/03/04 09:33:09;;;;;;;48.60;25.38;;;;;;;;;;5107296;28;20031;-66
2022/03/04 09:35:36;;;;;;;44.03;24.67;;;;;;;;;;5094465;28;20097;-65
2022/03/04 09:38:02;;;;;;;46.28;24.90;;;;;;;;;;5113034;28;20028;-66
2022/03/04 09:40:28;;;;;;;54.35;27.00;;;;;;;;;;5093989;28;20118;-65
2022/03/04 09:42:55;;;;;;;47.90;27.20;;;;;;;;;;5112704;28;20032;-66
2022/03/04 09:45:21;;;;;;;50.95;26.23;;;;;;;;;;5112700;28;20028;-66
2022/03/04 09:47:47;;;;;;;47.55;25.33;;;;;;;;;;5113106;28;20020;-67
2022/03/04 09:50:16;;;;;;;64.15;26.08;;;;;;;;;;5113248;28;20030;-66
2022/03/04 09:52:43;;;;;;;48.03;25.38;;;;;;;;;;5113484;28;20039;-67
2022/03/04 09:55:09;;;;;;;51.10;26.20;;;;;;;;;;5095082;28;20085;-65
2022/03/04 09:57:36;;;;;;;49.75;26.60;;;;;;;;;;5094839;28;20110;-65
2022/03/04 10:00:04;;;;;;;45.70;26.17;;;;;;;;;;5094948;28;20020;-65
2022/03/04 10:02:34;;;;;;;47.75;26.13;;;;;;;;;;5113169;28;20070;-64
2022/03/04 10:05:01;;;;;;;46.22;26.23;;;;;;;;;;5112910;28;20495;-64
2022/03/04 10:07:27;;;;;;;46.97;25.27;;;;;;;;;;5094722;28;20070;-64
2022/03/04 10:09:54;;;;;;;41.72;25.48;;;;;;;;;;5112878;28;20131;-64
2022/03/04 10:12:22;;;;;;;43.13;26.08;;;;;;;;;;5113085;28;20027;-63
2022/03/04 10:15:06;;;;;;;51.90;27.08;;;;;;;;;;5112636;28;20054;-63
2022/03/04 10:17:32;;;;;;;57.35;27.40;;;;;;;;;;5112807;28;20024;-64
2022/03/04 10:20:00;;;;;;;46.15;26.83;;;;;;;;;;5112925;28;20024;-65
2022/03/04 10:22:38;;;;;;;51.10;26.38;;;;;;;;;;5112768;28;20115;-65
2022/03/04 10:25:17;;;;;;;54.08;25.38;;;;;;;;;;5112923;28;20032;-64
2022/03/04 10:27:43;;;;;;;56.15;27.70;;;;;;;;;;5112300;28;20112;-65
2022/03/04 10:30:10;;;;;;;47.03;26.67;;;;;;;;;;5112881;28;20024;-69
2022/03/04 10:32:36;;;;;;;43.50;24.77;;;;;;;;;;5112621;28;20025;-64
2022/03/04 10:35:04;;;;;;;48.90;25.15;;;;;;;;;;5112980;28;20026;-64
2022/03/04 10:37:40;;;;;;;50.00;27.25;;;;;;;;;;5112939;28;20055;-64
2022/03/04 10:40:11;;;;;;;46.80;27.80;;;;;;;;;;5112963;28;20513;-64
2022/03/04 10:42:38;;;;;;;53.03;28.08;;;;;;;;;;5093333;28;20109;-64
2022/03/04 10:45:06;;;;;;;50.70;28.70;;;;;;;;;;5112567;28;20027;-64
2022/03/04 10:47:44;;;;;;;46.33;26.25;;;;;;;;;;5112908;28;20027;-64
2022/03/04 10:50:12;;;;;;;50.90;28.70;;;12.30;97.00;;;;;;5112786;28;20487;-64
2022/03/04 10:52:52;;;;;;;51.28;27.27;;;12.30;92.60;;;;;;5112551;28;20560;-64
2022/03/04 10:55:32;;;;;;;44.58;26.27;;;12.50;61.50;;;;;;5112907;28;20107;-64
2022/03/04 10:57:59;;;;;;;46.35;27.73;;;13.30;57.80;;;;;;5116674;28;20063;-64
2022/03/04 11:00:28;;;;;;;40.33;26.00;;;14.10;56.70;;;;;;5116554;28;20128;-65
2022/03/04 11:02:54;;;;;;;42.97;26.30;;;13.70;55.90;;;;;;5116385;28;20459;-66
2022/03/04 11:05:22;;;;;;;42.15;24.80;;;13.70;56.00;;;;;;5116425;28;20052;-64
2022/03/04 11:07:48;;;;;;;43.88;25.35;;;;;;;;;;5098076;28;20023;-66
2022/03/04 11:10:14;;;;;;;39.55;24.40;;;13.90;56.50;;;;;;5116303;28;20098;-65
2022/03/04 11:12:42;;;;;;;44.25;25.73;;;14.50;55.40;;;;;;5097665;28;20028;-66
2022/03/04 11:15:11;;;;;;;47.65;26.33;;;;;;;;;;5115830;28;20048;-65
2022/03/04 11:17:38;;;;;;;47.75;26.30;;;;;;;;;;5097987;28;20024;-65
2022/03/04 11:20:05;;;;;;;55.85;30.63;;;;;;;;;;5116122;28;20051;-65
2022/03/04 11:22:32;;;;;;;45.55;26.05;;;14.80;53.60;;;;;;5115634;28;20375;-65
2022/03/04 11:25:05;;;;;;;72.43;40.88;;;;;;;;;;5097666;28;20030;-65
2022/03/04 11:27:33;;;;;;;45.95;27.00;;;;;;;;;;5116296;28;20401;-65
2022/03/04 11:29:59;;;;;;;45.85;26.40;;;;;;;;;;5115588;28;20427;-64
2022/03/04 11:32:30;;;;;;;45.53;26.90;;;;;;;;;;5115823;28;20032;-64
2022/03/04 11:34:56;;;;;;;47.88;30.23;;;;;;;;;;5115468;28;20035;-64
2022/03/04 11:37:22;;;;;;;45.88;26.92;;;;;;;;;;5115661;28;20100;-64
2022/03/04 11:40:06;;;;;;;42.65;25.20;;;16.40;50.00;;;;;;5115431;28;20062;-64
2022/03/04 11:42:42;;;;;;;37.55;23.77;;;;;;;;;;5091559;28;20501;-64
2022/03/04 11:45:09;;;;;;;38.10;22.75;;;19.00;46.40;;;;;;5075950;28;20404;-65
2022/03/04 11:47:40;;;;;;;34.47;21.95;;;;;;;;;;5093115;28;20024;-65
2022/03/04 11:50:44;;;;;;;31.40;19.85;;;;;;;;;;5094101;28;20055;-64
2022/03/04 11:53:14;;;;;;;37.95;21.95;;;18.00;44.50;;;;;;4992550;28;20038;-64
2022/03/04 11:55:40;;;;;;;36.78;21.50;;;;;;;;;;4992366;28;20038;-64
2022/03/04 11:58:07;;;;;;;45.10;24.35;;;;;;;;;;4976323;28;20038;-64
2022/03/04 12:00:34;;;;;;;41.05;23.55;;;;;;;;;;4992417;28;20034;-64
2022/03/04 12:03:11;;;;;;;36.42;21.95;;;18.60;42.30;;;;;;4992349;28;20569;-64
2022/03/04 12:05:44;;;;;;;31.63;19.30;;;18.30;42.70;;;;;;4992405;28;20512;-65
2022/03/04 12:08:10;;;;;;;31.77;19.20;;;;;;;;;;4991372;28;20526;-64
2022/03/04 12:10:37;;;;;;;36.53;22.00;;;;;;;;;;4978699;28;20038;-64
2022/03/04 12:13:07;;;;;;;35.35;20.08;;;;;;;;;;4992428;28;20030;-64
2022/03/04 12:15:40;;;;;;;36.72;22.45;;;18.30;42.00;;;;;;4991561;28;20050;-64
2022/03/04 12:18:07;;;;;;;48.00;27.35;;;;;;;;;;4992333;28;20042;-64
2022/03/04 12:20:39;;;;;;;35.63;21.88;;;20.00;40.60;;;;;;4992072;28;20380;-64
2022/03/04 12:23:37;;;;;;;55.55;30.75;;;20.70;39.90;;;;;;5008333;28;20079;-64
2022/03/04 12:26:04;;;;;;;44.65;24.27;;;22.00;40.30;;;;;;5087073;28;20461;-65
2022/03/04 12:28:39;;;;;;;35.00;23.08;;;22.20;38.90;;;;;;5075166;28;20039;-65
2022/03/04 12:31:05;;;;;;;39.17;21.90;;;21.60;38.90;;;;;;5093840;28;20469;-64
2022/03/04 12:33:33;;;;;;;45.67;29.02;;;21.20;37.20;;;;;;5075498;28;20065;-64
2022/03/04 12:35:59;;;;;;;68.75;38.25;;;21.20;37.70;;;;;;5093100;28;20035;-65
2022/03/04 12:38:27;;;;;;;36.78;20.85;;;22.00;37.20;;;;;;5093323;28;20027;-68
2022/03/04 12:40:56;;;;;;;29.77;20.02;;;22.20;37.40;;;;;;5093278;28;20028;-68
2022/03/04 12:43:22;;;;;;;29.33;18.20;;;22.70;35.80;;;;;;5093646;28;20035;-65
2022/03/04 12:46:07;;;;;;;40.25;26.20;;;22.50;37.00;;;;;;5092933;28;20035;-65
2022/03/04 12:48:33;;;;;;;34.30;21.30;;;21.80;35.90;;;;;;5074373;28;20032;-63
2022/03/04 12:50:59;;;;;;;38.65;22.02;;;;;;;;;;5093337;28;20036;-64
2022/03/04 12:53:31;;;;;;;31.38;18.67;;;21.30;37.50;;;;;;5093384;28;20427;-65
2022/03/04 12:55:57;;;;;;;;;;;21.30;36.00;;;;;;5093202;28;20036;-63
2022/03/04 12:58:37;;;;;;;22.55;13.43;;;21.40;36.70;;;;;;5075005;28;19950;-64
2022/03/04 13:01:04;;;;;;;26.85;18.05;;;21.70;35.00;;;;;;5092669;28;20073;-66
2022/03/04 13:03:32;;;;;;;28.08;14.95;;;22.50;35.20;;;;;;5092696;28;20375;-64
2022/03/04 13:05:58;;;;;;;28.42;16.23;;;22.50;33.80;;;;;;5093669;28;20062;-65
2022/03/04 13:08:24;;;;;;;23.77;16.02;;;22.50;35.40;;;;;;5091647;28;20024;-64
2022/03/04 13:10:50;;;;;;;21.38;14.65;;;23.00;34.90;;;;;;5092886;28;20481;-64
2022/03/04 13:13:17;;;;;;;41.70;16.33;;;22.90;34.20;;;;;;5092088;28;20032;-64
2022/03/04 13:15:52;;;;;;;30.42;19.75;;;22.10;35.40;;;;;;5091822;28;20051;-65
2022/03/04 13:18:22;;;;;;;27.20;16.83;;;21.70;36.80;;;;;;5093318;28;20032;-64
2022/03/04 13:21:05;;;;;;;25.45;17.60;;;22.40;35.90;;;;;;5093495;28;20461;-65
2022/03/04 13:23:32;;;;;;;25.15;17.20;;;21.80;34.70;;;;;;5093471;28;20039;-65
2022/03/04 13:26:09;;;;;;;30.63;19.63;;;21.00;35.30;;;;;;5093469;28;20024;-64
2022/03/04 13:28:59;;;;;;;28.65;17.63;;;20.30;36.30;;;;;;5092101;28;20028;-64
2022/03/04 13:31:30;;;;;;;23.98;16.58;;;20.80;36.60;;;;;;5093420;28;20027;-65
2022/03/04 13:34:01;;;;;;;24.60;15.52;;;21.90;35.70;;;;;;5093183;28;20032;-65
2022/03/04 13:36:51;;;;;;;21.60;14.25;;;19.70;36.40;;;;;;5093358;28;20036;-64
2022/03/04 13:39:22;;;;;;;25.02;16.33;;;19.00;38.60;;;;;;5093215;28;20027;-64
2022/03/04 13:42:06;;;;;;;25.38;15.55;;;17.70;38.90;;;;;;5091960;28;20035;-65
2022/03/04 13:44:32;;;;;;;27.13;17.60;;;15.80;42.80;;;;;;5093194;28;20040;-65
2022/03/04 13:47:07;;;;;;;26.55;17.00;;;14.80;44.40;;;;;;5093118;28;20032;-65
2022/03/04 13:49:48;;;;;;;29.00;18.23;;;13.60;45.50;;;;;;5093102;28;20054;-65
2022/03/04 13:52:15;;;;;;;39.05;23.40;;;13.10;47.30;;;;;;5093458;28;20028;-65
2022/03/04 13:55:02;;;;;;;35.00;22.55;;;13.50;48.20;;;;;;5093071;28;20042;-65
2022/03/04 13:57:34;;;;;;;29.83;18.80;;;13.30;47.70;;;;;;5093132;28;20175;-65
2022/03/04 14:00:03;;;;;;;29.77;18.85;;;13.50;47.70;;;;;;5093306;28;20095;-63
2022/03/04 14:02:47;;;;;;;30.52;17.77;;;13.50;47.50;;;;;;5091557;28;20040;-65